nws-alerts: Checking more than four warning/county codes can delay the loading of your pages. You should use a cron job to get the data.
EllijayWeather Station Historical Data
Daily Summary for August 14, 2018 Units:  English    Metric   Both
Daily Weekly Monthly Yearly Custom
  High: Low: Average:
Temperature: 83.1 °F 60.6 °F 71.3 °F
Dew Point: 71.2 °F 59.2 °F 65.9 °F
Humidity: 96% 53% 84%
Wind Speed: 4mph 0mph 0.1mph
Wind Gust: 7mph - -
Wind- - SW
Pressure: 30.09 in 30.02 in -
Precipitation: 0 in    
Historical Graphs
 
 
Tabular Data for August 14, 2018
Time Temperature Dew Point Pressure Wind Wind Speed Wind Gust Humidity Rainfall Rate (Hourly) solar
00:04 67.3 °F 65.5 °F 30.07 in Calm     94% 0 in meteobridge W/m2
00:09 67.3 °F 65.5 °F 30.07 in Calm     94% 0 in meteobridge W/m2
00:14 67.1 °F 65.3 °F 30.07 in Calm     94% 0 in meteobridge W/m2
00:19 66.9 °F 65.1 °F 30.07 in Calm     94% 0 in meteobridge W/m2
00:24 66.9 °F 65.1 °F 30.07 in Calm     94% 0 in meteobridge W/m2
00:29 66.7 °F 64.9 °F 30.07 in Calm     94% 0 in meteobridge W/m2
00:34 66.7 °F 64.9 °F 30.06 in Calm     94% 0 in meteobridge W/m2
00:39 66.6 °F 64.8 °F 30.06 in Calm     94% 0 in meteobridge W/m2
00:44 66.6 °F 64.8 °F 30.06 in Calm     94% 0 in meteobridge W/m2
00:48 66.6 °F 64.8 °F 30.06 in Calm     94% 0 in meteobridge W/m2
00:54 66.4 °F 64.6 °F 30.06 in Calm     94% 0 in meteobridge W/m2
00:59 66.4 °F 64.6 °F 30.06 in Calm     94% 0 in meteobridge W/m2
01:04 66.2 °F 64.4 °F 30.06 in Calm     94% 0 in meteobridge W/m2
01:09 66 °F 64.2 °F 30.06 in Calm     94% 0 in meteobridge W/m2
01:14 66 °F 64.2 °F 30.06 in Calm     94% 0 in meteobridge W/m2
01:19 65.8 °F 64 °F 30.06 in Calm     94% 0 in meteobridge W/m2
01:24 65.8 °F 64 °F 30.06 in Calm     94% 0 in meteobridge W/m2
01:29 65.8 °F 64 °F 30.06 in Calm     94% 0 in meteobridge W/m2
01:34 65.7 °F 63.9 °F 30.06 in Calm     94% 0 in meteobridge W/m2
01:39 65.7 °F 63.9 °F 30.06 in Calm     94% 0 in meteobridge W/m2
01:44 65.5 °F 63.7 °F 30.06 in Calm     94% 0 in meteobridge W/m2
01:49 65.5 °F 63.7 °F 30.05 in Calm     94% 0 in meteobridge W/m2
01:54 65.1 °F 63.3 °F 30.06 in Calm     94% 0 in meteobridge W/m2
01:59 65.1 °F 63.3 °F 30.05 in Calm     94% 0 in meteobridge W/m2
02:04 64.9 °F 63.5 °F 30.05 in Calm     95% 0 in meteobridge W/m2
02:09 64.9 °F 63.5 °F 30.05 in Calm     95% 0 in meteobridge W/m2
02:14 64.9 °F 63.5 °F 30.05 in Calm     95% 0 in meteobridge W/m2
02:19 64.8 °F 63.3 °F 30.05 in Calm     95% 0 in meteobridge W/m2
02:24 64.8 °F 63.3 °F 30.05 in Calm     95% 0 in meteobridge W/m2
02:29 64.6 °F 63.1 °F 30.05 in Calm     95% 0 in meteobridge W/m2
02:34 64.6 °F 63.1 °F 30.05 in Calm     95% 0 in meteobridge W/m2
02:39 64.4 °F 63 °F 30.04 in Calm     95% 0 in meteobridge W/m2
02:44 64.4 °F 63 °F 30.04 in Calm     95% 0 in meteobridge W/m2
02:49 64.2 °F 62.8 °F 30.04 in Calm     95% 0 in meteobridge W/m2
02:54 64.2 °F 62.8 °F 30.04 in Calm     95% 0 in meteobridge W/m2
02:59 64.2 °F 62.8 °F 30.04 in Calm     95% 0 in meteobridge W/m2
03:04 64 °F 62.6 °F 30.04 in Calm     95% 0 in meteobridge W/m2
03:09 64 °F 62.6 °F 30.04 in Calm     95% 0 in meteobridge W/m2
03:14 63.9 °F 62.4 °F 30.04 in Calm     95% 0 in meteobridge W/m2
03:19 63.9 °F 62.4 °F 30.04 in Calm     95% 0 in meteobridge W/m2
03:24 63.7 °F 62.2 °F 30.04 in Calm     95% 0 in meteobridge W/m2
03:29 63.7 °F 62.2 °F 30.04 in Calm     95% 0 in meteobridge W/m2
03:34 63.5 °F 62.1 °F 30.04 in Calm     95% 0 in meteobridge W/m2
03:39 63.3 °F 61.9 °F 30.04 in Calm     95% 0 in meteobridge W/m2
03:44 63.3 °F 61.9 °F 30.03 in Calm     95% 0 in meteobridge W/m2
03:49 63.1 °F 61.7 °F 30.03 in Calm     95% 0 in meteobridge W/m2
03:54 63.1 °F 61.7 °F 30.03 in Calm     95% 0 in meteobridge W/m2
03:59 63.1 °F 61.7 °F 30.03 in Calm     95% 0 in meteobridge W/m2
04:04 63 °F 61.5 °F 30.03 in Calm     95% 0 in meteobridge W/m2
04:09 63 °F 61.5 °F 30.03 in Calm     95% 0 in meteobridge W/m2
04:14 62.8 °F 61.3 °F 30.03 in Calm     95% 0 in meteobridge W/m2
04:19 62.8 °F 61.3 °F 30.03 in Calm     95% 0 in meteobridge W/m2
04:24 62.8 °F 61.3 °F 30.03 in Calm     95% 0 in meteobridge W/m2
04:29 62.6 °F 61.2 °F 30.03 in Calm     95% 0 in meteobridge W/m2
04:34 62.4 °F 61 °F 30.03 in Calm     95% 0 in meteobridge W/m2
04:39 62.4 °F 61 °F 30.03 in Calm     95% 0 in meteobridge W/m2
04:44 62.4 °F 61 °F 30.03 in Calm     95% 0 in meteobridge W/m2
04:49 62.2 °F 60.8 °F 30.03 in Calm     95% 0 in meteobridge W/m2
04:54 62.2 °F 60.8 °F 30.03 in Calm     95% 0 in meteobridge W/m2
04:59 62.2 °F 60.8 °F 30.03 in Calm     95% 0 in meteobridge W/m2
05:04 62.1 °F 60.6 °F 30.03 in Calm     95% 0 in meteobridge W/m2
05:09 62.1 °F 60.6 °F 30.03 in Calm     95% 0 in meteobridge W/m2
05:14 61.9 °F 60.4 °F 30.03 in Calm     95% 0 in meteobridge W/m2
05:19 61.9 °F 60.4 °F 30.03 in Calm     95% 0 in meteobridge W/m2
05:24 61.9 °F 60.4 °F 30.03 in Calm     95% 0 in meteobridge W/m2
05:29 61.7 °F 60.3 °F 30.03 in Calm     95% 0 in meteobridge W/m2
05:34 61.7 °F 60.3 °F 30.04 in Calm     95% 0 in meteobridge W/m2
05:39 61.7 °F 60.3 °F 30.04 in Calm     95% 0 in meteobridge W/m2
05:44 61.5 °F 60.1 °F 30.04 in Calm     95% 0 in meteobridge W/m2
05:49 61.5 °F 60.1 °F 30.04 in Calm     95% 0 in meteobridge W/m2
05:54 61.5 °F 60.1 °F 30.04 in Calm     95% 0 in meteobridge W/m2
05:59 61.3 °F 59.9 °F 30.04 in Calm     95% 0 in meteobridge W/m2
06:04 61.3 °F 59.9 °F 30.05 in Calm     95% 0 in meteobridge W/m2
06:09 61.2 °F 59.7 °F 30.05 in Calm     95% 0 in meteobridge W/m2
06:14 61.2 °F 59.7 °F 30.05 in Calm     95% 0 in meteobridge W/m2
06:19 61.2 °F 59.7 °F 30.05 in Calm     95% 0 in meteobridge W/m2
06:24 61.2 °F 59.7 °F 30.05 in Calm     95% 0 in meteobridge W/m2
06:29 61 °F 59.5 °F 30.05 in Calm     95% 0 in meteobridge W/m2
06:34 61 °F 59.5 °F 30.05 in Calm     95% 0 in meteobridge W/m2
06:39 61 °F 59.5 °F 30.06 in Calm     95% 0 in meteobridge W/m2
06:44 61 °F 59.5 °F 30.06 in Calm     95% 0 in meteobridge W/m2
06:49 61 °F 59.5 °F 30.06 in Calm     95% 0 in meteobridge W/m2
06:54 60.8 °F 59.4 °F 30.06 in Calm     95% 0 in meteobridge W/m2
06:59 60.6 °F 59.2 °F 30.06 in Calm     95% 0 in meteobridge W/m2
07:04 60.6 °F 59.2 °F 30.06 in Calm     95% 0 in meteobridge W/m2
07:09 60.6 °F 59.2 °F 30.06 in Calm     95% 0 in meteobridge W/m2
07:14 60.6 °F 59.2 °F 30.07 in Calm     95% 0 in meteobridge W/m2
07:19 60.6 °F 59.2 °F 30.07 in Calm     95% 0 in meteobridge W/m2
07:24 60.6 °F 59.2 °F 30.07 in Calm     95% 0 in meteobridge W/m2
07:29 60.6 °F 59.2 °F 30.07 in Calm     95% 0 in meteobridge W/m2
07:34 60.6 °F 59.2 °F 30.07 in Calm     95% 0 in meteobridge W/m2
07:39 60.8 °F 59.4 °F 30.07 in Calm     95% 0 in meteobridge W/m2
07:44 61 °F 59.5 °F 30.07 in Calm     95% 0 in meteobridge W/m2
07:49 61.2 °F 60.1 °F 30.08 in Calm     96% 0 in meteobridge W/m2
07:54 61.3 °F 60.3 °F 30.08 in Calm     96% 0 in meteobridge W/m2
07:59 61.3 °F 60.3 °F 30.08 in Calm     96% 0 in meteobridge W/m2
08:04 61.5 °F 60.4 °F 30.08 in Calm     96% 0 in meteobridge W/m2
08:09 61.9 °F 60.8 °F 30.08 in Calm     96% 0 in meteobridge W/m2
08:14 62.1 °F 61 °F 30.08 in Calm     96% 0 in meteobridge W/m2
08:18 62.2 °F 61.2 °F 30.08 in Calm     96% 0 in meteobridge W/m2
08:24 62.4 °F 61.3 °F 30.08 in Calm     96% 0 in meteobridge W/m2
08:29 62.6 °F 61.5 °F 30.08 in Calm     96% 0 in meteobridge W/m2
08:34 63 °F 61.9 °F 30.08 in Calm     96% 0 in meteobridge W/m2
08:39 63.1 °F 62.1 °F 30.09 in Calm     96% 0 in meteobridge W/m2
08:44 63.3 °F 62.2 °F 30.09 in Calm     96% 0 in meteobridge W/m2
08:49 63.7 °F 62.6 °F 30.09 in Calm     96% 0 in meteobridge W/m2
08:54 63.9 °F 62.8 °F 30.09 in Calm     96% 0 in meteobridge W/m2
08:59 64.2 °F 63.1 °F 30.09 in Calm     96% 0 in meteobridge W/m2
09:04 64.6 °F 63.5 °F 30.09 in Calm     96% 0 in meteobridge W/m2
09:09 64.9 °F 63.9 °F 30.09 in Calm     96% 0 in meteobridge W/m2
09:14 65.3 °F 64 °F 30.09 in Calm     96% 0 in meteobridge W/m2
09:19 65.7 °F 64.4 °F 30.09 in Calm     96% 0 in meteobridge W/m2
09:24 65.8 °F 64.6 °F 30.09 in Calm     96% 0 in meteobridge W/m2
09:29 66.2 °F 64.9 °F 30.09 in Calm     96% 0 in meteobridge W/m2
09:34 66.6 °F 65.3 °F 30.08 in Calm     96% 0 in meteobridge W/m2
09:39 66.9 °F 65.7 °F 30.08 in Calm     96% 0 in meteobridge W/m2
09:44 67.5 °F 66.2 °F 30.08 in Calm     96% 0 in meteobridge W/m2
09:49 67.8 °F 66.6 °F 30.08 in Calm     96% 0 in meteobridge W/m2
09:54 68.2 °F 66.9 °F 30.08 in Calm     96% 0 in meteobridge W/m2
09:59 68.5 °F 67.3 °F 30.08 in Calm     96% 0 in meteobridge W/m2
10:04 69.1 °F 67.8 °F 30.09 in Calm     96% 0 in meteobridge W/m2
10:09 69.3 °F 68 °F 30.08 in Calm     96% 0 in meteobridge W/m2
10:14 69.6 °F 68.2 °F 30.08 in Calm     95% 0 in meteobridge W/m2
10:19 70.2 °F 68.7 °F 30.08 in Calm     95% 0 in meteobridge W/m2
10:24 70.9 °F 69.1 °F 30.09 in Calm     94% 0 in meteobridge W/m2
10:29 71.4 °F 69.3 °F 30.08 in Calm     93% 0 in meteobridge W/m2
10:34 72 °F 69.4 °F 30.08 in Calm     92% 0 in meteobridge W/m2
10:39 72.3 °F 69.8 °F 30.09 in Calm   1 mph 92% 0 in meteobridge W/m2
10:44 72.9 °F 69.8 °F 30.08 in Calm   1 mph 90% 0 in meteobridge W/m2
10:49 73.2 °F 69.8 °F 30.08 in Calm   2 mph 89% 0 in meteobridge W/m2
10:54 73.9 °F 70.2 °F 30.08 in Calm     88% 0 in meteobridge W/m2
10:59 74.5 °F 70 °F 30.08 in North 0.9 mph 1 mph 86% 0 in meteobridge W/m2
11:04 74.8 °F 70.3 °F 30.08 in Calm     86% 0 in meteobridge W/m2
11:09 75.4 °F 70.5 °F 30.08 in Calm     85% 0 in meteobridge W/m2
11:14 75.7 °F 69.8 °F 30.08 in Calm     82% 0 in meteobridge W/m2
11:19 76.3 °F 69.6 °F 30.09 in Calm     80% 0 in meteobridge W/m2
11:24 76.8 °F 69.4 °F 30.09 in Calm   1 mph 78% 0 in meteobridge W/m2
11:29 77.5 °F 69.4 °F 30.08 in Calm     76% 0 in meteobridge W/m2
11:34 78.3 °F 69.3 °F 30.08 in ENE 2 mph 4 mph 74% 0 in meteobridge W/m2
11:39 79.2 °F 69.8 °F 30.09 in Calm   1 mph 73% 0 in meteobridge W/m2
11:44 79.5 °F 69.6 °F 30.08 in Calm   1 mph 72% 0 in meteobridge W/m2
11:49 79.9 °F 69.3 °F 30.08 in NE 0.9 mph 4 mph 70% 0 in meteobridge W/m2
11:54 80.2 °F 69.1 °F 30.08 in Calm     69% 0 in meteobridge W/m2
11:59 80.2 °F 70 °F 30.08 in Calm   1 mph 71% 0 in meteobridge W/m2
12:04 80.4 °F 70.9 °F 30.08 in Calm     73% 0 in meteobridge W/m2
12:09 80.2 °F 70 °F 30.08 in Calm   1 mph 71% 0 in meteobridge W/m2
12:14 80.4 °F 68.9 °F 30.08 in Calm   3 mph 68% 0 in meteobridge W/m2
12:19 81 °F 68.9 °F 30.07 in Calm   1 mph 67% 0 in meteobridge W/m2
12:24 81.3 °F 69.8 °F 30.07 in Calm   1 mph 68% 0 in meteobridge W/m2
12:29 81.7 °F 69.3 °F 30.07 in Calm   2 mph 66% 0 in meteobridge W/m2
12:34 81.9 °F 68.9 °F 30.07 in NNW 0.9 mph 1 mph 65% 0 in meteobridge W/m2
12:39 82.2 °F 69.3 °F 30.07 in Calm     65% 0 in meteobridge W/m2
12:44 82 °F 69.1 °F 30.07 in NW 0.9 mph 1 mph 65% 0 in meteobridge W/m2
12:49 82 °F 66.4 °F 30.07 in Calm   1 mph 59% 0 in meteobridge W/m2
12:54 82.2 °F 68.4 °F 30.07 in Calm     63% 0 in meteobridge W/m2
12:59 82 °F 70 °F 30.07 in Calm     67% 0 in meteobridge W/m2
13:04 81.7 °F 70.2 °F 30.07 in Calm   1 mph 68% 0 in meteobridge W/m2
13:09 81 °F 70.2 °F 30.07 in Calm   1 mph 70% 0 in meteobridge W/m2
13:14 80.4 °F 70.5 °F 30.06 in Calm     72% 0 in meteobridge W/m2
13:19 80.1 °F 69.8 °F 30.06 in Calm   1 mph 71% 0 in meteobridge W/m2
13:24 80.2 °F 68.4 °F 30.06 in Calm   1 mph 67% 0 in meteobridge W/m2
13:29 81.1 °F 68.2 °F 30.06 in Calm   3 mph 65% 0 in meteobridge W/m2
13:34 82 °F 70.9 °F 30.07 in Calm     69% 0 in meteobridge W/m2
13:39 82.4 °F 68.5 °F 30.07 in NNW 2 mph 4 mph 63% 0 in meteobridge W/m2
13:44 82.8 °F 68 °F 30.06 in Calm   1 mph 61% 0 in meteobridge W/m2
13:49 82.8 °F 68.4 °F 30.06 in Calm     62% 0 in meteobridge W/m2
13:54 82.4 °F 69.1 °F 30.06 in Calm   1 mph 64% 0 in meteobridge W/m2
13:59 82 °F 67.3 °F 30.05 in Calm   1 mph 61% 0 in meteobridge W/m2
14:04 82 °F 66.4 °F 30.06 in North 2 mph 4 mph 59% 0 in meteobridge W/m2
14:09 82.4 °F 65.7 °F 30.06 in Calm   5 mph 57% 0 in meteobridge W/m2
14:14 82.8 °F 68.4 °F 30.05 in Calm     62% 0 in meteobridge W/m2
14:19 82.8 °F 66.9 °F 30.05 in ENE 0.9 mph 3 mph 59% 0 in meteobridge W/m2
14:24 82.9 °F 68.2 °F 30.05 in Calm     61% 0 in meteobridge W/m2
14:29 82.8 °F 68.9 °F 30.05 in Calm     63% 0 in meteobridge W/m2
14:34 82.4 °F 68 °F 30.05 in Calm   1 mph 62% 0 in meteobridge W/m2
14:39 82.4 °F 67.1 °F 30.04 in Calm   3 mph 60% 0 in meteobridge W/m2
14:44 82.4 °F 69.1 °F 30.04 in Calm   1 mph 64% 0 in meteobridge W/m2
14:49 82.2 °F 67.5 °F 30.04 in Calm     61% 0 in meteobridge W/m2
14:54 82.2 °F 67.5 °F 30.04 in Calm   4 mph 61% 0 in meteobridge W/m2
14:59 82.2 °F 67.5 °F 30.04 in Calm   3 mph 61% 0 in meteobridge W/m2
15:04 82.2 °F 67.5 °F 30.04 in Calm   1 mph 61% 0 in meteobridge W/m2
15:09 82.2 °F 66 °F 30.04 in Calm   1 mph 58% 0 in meteobridge W/m2
15:14 82.4 °F 68 °F 30.04 in Calm     62% 0 in meteobridge W/m2
15:19 82.6 °F 67.3 °F 30.04 in Calm     60% 0 in meteobridge W/m2
15:24 82.6 °F 67.3 °F 30.04 in Calm     60% 0 in meteobridge W/m2
15:29 82.6 °F 68.2 °F 30.03 in Calm     62% 0 in meteobridge W/m2
15:34 82.2 °F 67.8 °F 30.03 in Calm   1 mph 62% 0 in meteobridge W/m2
15:39 82.2 °F 63.3 °F 30.03 in WNW 0.9 mph 3 mph 53% 0 in meteobridge W/m2
15:44 82.6 °F 64.2 °F 30.03 in East 0.9 mph 1 mph 54% 0 in meteobridge W/m2
15:49 82.8 °F 66 °F 30.03 in NNW 4 mph 4 mph 57% 0 in meteobridge W/m2
15:54 82.9 °F 66.2 °F 30.03 in Calm   3 mph 57% 0 in meteobridge W/m2
15:59 83.1 °F 66.7 °F 30.03 in Calm   3 mph 58% 0 in meteobridge W/m2
16:04 82.9 °F 68.2 °F 30.03 in Calm     61% 0 in meteobridge W/m2
16:09 82.9 °F 67.6 °F 30.03 in NW 2 mph 4 mph 60% 0 in meteobridge W/m2
16:14 82.9 °F 69.1 °F 30.03 in Calm   2 mph 63% 0 in meteobridge W/m2
16:19 82.8 °F 68.4 °F 30.03 in Calm   1 mph 62% 0 in meteobridge W/m2
16:24 82.8 °F 68.9 °F 30.03 in Calm     63% 0 in meteobridge W/m2
16:29 82.8 °F 67.5 °F 30.03 in Calm   2 mph 60% 0 in meteobridge W/m2
16:34 82.8 °F 67.5 °F 30.03 in Calm   4 mph 60% 0 in meteobridge W/m2
16:39 82.8 °F 70.2 °F 30.02 in Calm     66% 0 in meteobridge W/m2
16:44 82.8 °F 66.9 °F 30.02 in Calm   4 mph 59% 0 in meteobridge W/m2
16:49 82.8 °F 69.3 °F 30.02 in Calm     64% 0 in meteobridge W/m2
16:54 82.8 °F 70.2 °F 30.02 in Calm     66% 0 in meteobridge W/m2
16:59 82.4 °F 70 °F 30.02 in Calm   7 mph 66% 0 in meteobridge W/m2
17:04 82.2 °F 71.1 °F 30.02 in Calm     69% 0 in meteobridge W/m2
17:09 82.2 °F 71.1 °F 30.02 in Calm     69% 0 in meteobridge W/m2
17:14 82 °F 69.1 °F 30.02 in NNW 0.9 mph 3 mph 65% 0 in meteobridge W/m2
17:19 82 °F 67.6 °F 30.02 in Calm   4 mph 62% 0 in meteobridge W/m2
17:24 82 °F 69.1 °F 30.02 in Calm   1 mph 65% 0 in meteobridge W/m2
17:29 81.7 °F 68.4 °F 30.02 in Calm   1 mph 64% 0 in meteobridge W/m2
17:34 81.3 °F 69.3 °F 30.02 in Calm   2 mph 67% 0 in meteobridge W/m2
17:39 81.1 °F 70 °F 30.02 in Calm   1 mph 69% 0 in meteobridge W/m2
17:44 81 °F 68.5 °F 30.02 in Calm   1 mph 66% 0 in meteobridge W/m2
17:49 80.8 °F 68.4 °F 30.02 in Calm   1 mph 66% 0 in meteobridge W/m2
17:54 80.8 °F 69.6 °F 30.03 in Calm     69% 0 in meteobridge W/m2
17:59 80.6 °F 69.4 °F 30.03 in Calm     69% 0 in meteobridge W/m2
18:04 80.4 °F 69.8 °F 30.03 in Calm   1 mph 70% 0 in meteobridge W/m2
18:09 80.1 °F 70.2 °F 30.03 in Calm     72% 0 in meteobridge W/m2
18:14 80.1 °F 70.7 °F 30.03 in Calm   1 mph 73% 0 in meteobridge W/m2
18:19 79.7 °F 71.1 °F 30.03 in Calm     75% 0 in meteobridge W/m2
18:24 79.3 °F 70.3 °F 30.03 in Calm     74% 0 in meteobridge W/m2
18:29 79 °F 70.3 °F 30.03 in Calm     75% 0 in meteobridge W/m2
18:34 78.4 °F 69.8 °F 30.03 in Calm     75% 0 in meteobridge W/m2
18:39 78.3 °F 71.2 °F 30.03 in Calm     79% 0 in meteobridge W/m2
18:44 77.9 °F 70.9 °F 30.03 in Calm     79% 0 in meteobridge W/m2
18:49 77.5 °F 70.9 °F 30.03 in Calm     80% 0 in meteobridge W/m2
18:54 77 °F 70.7 °F 30.03 in Calm     81% 0 in meteobridge W/m2
18:59 76.6 °F 70.7 °F 30.03 in Calm     82% 0 in meteobridge W/m2
19:04 76.5 °F 70.9 °F 30.03 in Calm     83% 0 in meteobridge W/m2
19:09 76.1 °F 70.2 °F 30.03 in Calm     82% 0 in meteobridge W/m2
19:14 75.9 °F 70 °F 30.03 in Calm     82% 0 in meteobridge W/m2
19:19 75.7 °F 70.5 °F 30.03 in Calm     84% 0 in meteobridge W/m2
19:24 75.7 °F 70.5 °F 30.03 in Calm     84% 0 in meteobridge W/m2
19:29 75.6 °F 70.7 °F 30.03 in Calm     85% 0 in meteobridge W/m2
19:34 75.6 °F 71.1 °F 30.03 in Calm     86% 0 in meteobridge W/m2
19:39 75.4 °F 70.5 °F 30.03 in Calm     85% 0 in meteobridge W/m2
19:44 75.2 °F 70.3 °F 30.04 in Calm     85% 0 in meteobridge W/m2
19:49 75 °F 70.5 °F 30.04 in Calm     86% 0 in meteobridge W/m2
19:54 74.8 °F 70.3 °F 30.04 in Calm     86% 0 in meteobridge W/m2
19:59 74.7 °F 70.2 °F 30.04 in Calm     86% 0 in meteobridge W/m2
20:04 74.3 °F 69.8 °F 30.04 in Calm     86% 0 in meteobridge W/m2
20:09 74.1 °F 70 °F 30.04 in Calm     87% 0 in meteobridge W/m2
20:14 73.9 °F 69.8 °F 30.04 in Calm     87% 0 in meteobridge W/m2
20:19 73.8 °F 69.6 °F 30.05 in Calm     87% 0 in meteobridge W/m2
20:24 73.6 °F 69.8 °F 30.05 in Calm     88% 0 in meteobridge W/m2
20:29 73.2 °F 69.4 °F 30.05 in Calm     88% 0 in meteobridge W/m2
20:34 73 °F 69.3 °F 30.05 in Calm     88% 0 in meteobridge W/m2
20:39 72.9 °F 69.1 °F 30.05 in Calm     88% 0 in meteobridge W/m2
20:44 72.7 °F 69.3 °F 30.05 in Calm     89% 0 in meteobridge W/m2
20:49 72.3 °F 68.9 °F 30.05 in Calm     89% 0 in meteobridge W/m2
20:54 72 °F 68.5 °F 30.05 in Calm     89% 0 in meteobridge W/m2
20:59 71.6 °F 68.2 °F 30.05 in Calm     89% 0 in meteobridge W/m2
21:04 71.4 °F 68.4 °F 30.05 in Calm     90% 0 in meteobridge W/m2
21:09 71.1 °F 68 °F 30.05 in Calm     90% 0 in meteobridge W/m2
21:14 71.1 °F 68 °F 30.05 in Calm     90% 0 in meteobridge W/m2
21:19 70.9 °F 67.8 °F 30.05 in Calm     90% 0 in meteobridge W/m2
21:24 70.5 °F 67.5 °F 30.05 in Calm     90% 0 in meteobridge W/m2
21:29 70.5 °F 67.8 °F 30.05 in Calm     91% 0 in meteobridge W/m2
21:34 70.3 °F 67.6 °F 30.05 in Calm     91% 0 in meteobridge W/m2
21:39 70.2 °F 67.5 °F 30.05 in Calm     91% 0 in meteobridge W/m2
21:44 70 °F 67.3 °F 30.06 in Calm     91% 0 in meteobridge W/m2
21:49 69.8 °F 67.1 °F 30.06 in Calm     91% 0 in meteobridge W/m2
21:54 69.6 °F 66.9 °F 30.06 in Calm     91% 0 in meteobridge W/m2
21:59 69.4 °F 67.1 °F 30.06 in Calm     92% 0 in meteobridge W/m2
22:04 69.3 °F 66.9 °F 30.06 in Calm     92% 0 in meteobridge W/m2
22:09 69.1 °F 66.7 °F 30.07 in Calm     92% 0 in meteobridge W/m2
22:14 69.1 °F 66.7 °F 30.07 in Calm     92% 0 in meteobridge W/m2
22:19 69.1 °F 66.7 °F 30.07 in Calm     92% 0 in meteobridge W/m2
22:24 68.9 °F 66.6 °F 30.07 in Calm     92% 0 in meteobridge W/m2
22:29 68.7 °F 66.6 °F 30.07 in Calm     93% 0 in meteobridge W/m2
22:34 68.5 °F 66.4 °F 30.07 in Calm     93% 0 in meteobridge W/m2
22:39 68.5 °F 66.4 °F 30.07 in Calm     93% 0 in meteobridge W/m2
22:44 68.4 °F 66.2 °F 30.08 in Calm     93% 0 in meteobridge W/m2
22:49 68.4 °F 66.2 °F 30.08 in Calm     93% 0 in meteobridge W/m2
22:54 68.4 °F 66.2 °F 30.08 in Calm     93% 0 in meteobridge W/m2
22:59 68.2 °F 66 °F 30.08 in Calm     93% 0 in meteobridge W/m2
23:04 68.2 °F 66 °F 30.08 in Calm     93% 0 in meteobridge W/m2
23:09 68 °F 65.8 °F 30.08 in Calm     93% 0 in meteobridge W/m2
23:14 67.8 °F 65.7 °F 30.09 in Calm     93% 0 in meteobridge W/m2
23:19 67.8 °F 65.7 °F 30.09 in Calm     93% 0 in meteobridge W/m2
23:24 67.6 °F 65.5 °F 30.09 in Calm     93% 0 in meteobridge W/m2
23:29 67.6 °F 65.8 °F 30.09 in Calm     94% 0 in meteobridge W/m2
23:34 67.6 °F 65.8 °F 30.09 in Calm     94% 0 in meteobridge W/m2
23:39 67.5 °F 65.7 °F 30.09 in Calm     94% 0 in meteobridge W/m2
23:44 67.5 °F 65.7 °F 30.09 in Calm     94% 0 in meteobridge W/m2
23:49 67.3 °F 65.5 °F 30.09 in Calm     94% 0 in meteobridge W/m2
23:54 67.3 °F 65.5 °F 30.09 in Calm     94% 0 in meteobridge W/m2
23:59 67.1 °F 65.3 °F 30.09 in Calm     94% 0 in meteobridge W/m2
EllijayWeather
Compliments of Weather Underground - 2.5 mb